createdAt,value
2018-04-26T00:00:29.541Z,16.40
2018-04-26T00:02:58.486Z,17.27
2018-04-26T00:05:27.675Z,15.77
2018-04-26T00:07:56.535Z,12.60
2018-04-26T00:10:25.735Z,12.60
2018-04-26T00:12:54.729Z,11.47
2018-04-26T00:15:23.820Z,10.20
2018-04-26T00:17:53.989Z,10.10
2018-04-26T00:20:22.942Z,9.63
2018-04-26T00:22:53.811Z,10.23
2018-04-26T00:25:22.868Z,9.93
2018-04-26T00:27:51.766Z,10.30
2018-04-26T00:30:21.621Z,9.43
2018-04-26T00:32:51.568Z,9.90
2018-04-26T00:35:20.482Z,9.20
2018-04-26T00:37:49.417Z,9.80
2018-04-26T00:40:18.503Z,9.73
2018-04-26T00:42:47.497Z,8.73
2018-04-26T00:45:16.359Z,8.10
2018-04-26T00:47:45.458Z,9.63
2018-04-26T00:50:14.988Z,8.93
2018-04-26T00:52:44.063Z,8.27
2018-04-26T00:55:12.937Z,7.90
2018-04-26T00:57:42.044Z,8.70
2018-04-26T01:00:11.039Z,8.43
2018-04-26T01:02:41.813Z,8.13
2018-04-26T01:05:10.703Z,7.60
2018-04-26T01:07:39.866Z,7.17
2018-04-26T01:10:10.086Z,7.73
2018-04-26T01:12:39.016Z,7.73
2018-04-26T01:15:09.103Z,7.07
2018-04-26T01:17:39.938Z,7.50
2018-04-26T01:20:08.913Z,7.50
2018-04-26T01:22:37.962Z,6.10
2018-04-26T01:25:06.989Z,7.40
2018-04-26T01:27:36.051Z,6.07
2018-04-26T01:30:05.214Z,6.93
2018-04-26T01:32:34.380Z,6.17
2018-04-26T01:35:03.927Z,6.50
2018-04-26T01:37:45.612Z,6.50
2018-04-26T01:40:15.011Z,6.47
2018-04-26T01:42:44.107Z,7.00
2018-04-26T01:45:14.846Z,6.20
2018-04-26T01:47:43.843Z,6.80
2018-04-26T01:50:13.755Z,6.53
2018-04-26T01:52:43.437Z,6.47
2018-04-26T01:55:12.314Z,6.27
2018-04-26T01:57:42.175Z,6.70
2018-04-26T02:00:12.055Z,6.47
2018-04-26T02:02:41.080Z,6.43
2018-04-26T02:05:10.065Z,7.03
2018-04-26T02:07:39.787Z,6.70
2018-04-26T02:10:09.216Z,6.67
2018-04-26T02:12:38.326Z,6.50
2018-04-26T02:15:07.485Z,6.50
2018-04-26T02:17:37.199Z,7.57
2018-04-26T02:20:06.596Z,7.73
2018-04-26T02:22:42.663Z,6.77
2018-04-26T02:25:12.169Z,6.33
2018-04-26T02:27:41.264Z,6.77
2018-04-26T02:30:13.328Z,6.27
2018-04-26T02:32:42.322Z,7.20
2018-04-26T02:35:11.350Z,7.97
2018-04-26T02:37:41.242Z,7.53
2018-04-26T02:40:10.214Z,7.07
2018-04-26T02:42:39.226Z,7.30
2018-04-26T02:45:11.283Z,6.90
2018-04-26T02:47:40.191Z,6.73
2018-04-26T02:50:09.277Z,7.50
2018-04-26T02:52:38.147Z,6.40
2018-04-26T02:55:07.260Z,7.10
2018-04-26T02:57:36.258Z,6.77
2018-04-26T03:00:05.264Z,6.87
2018-04-26T03:02:47.256Z,6.60
2018-04-26T03:05:33.999Z,6.60
2018-04-26T03:08:08.337Z,6.83
2018-04-26T03:10:38.192Z,6.20
2018-04-26T03:13:07.186Z,6.20
2018-04-26T03:15:36.189Z,6.80
2018-04-26T03:18:05.181Z,6.47
2018-04-26T03:20:35.088Z,6.47
2018-04-26T03:23:04.085Z,7.00
2018-04-26T03:25:33.050Z,6.53
2018-04-26T03:28:02.281Z,6.60
2018-04-26T03:30:31.065Z,6.33
2018-04-26T03:33:00.995Z,6.17
2018-04-26T03:35:30.323Z,6.23
2018-04-26T03:37:59.311Z,6.13
2018-04-26T03:40:30.175Z,6.10
2018-04-26T03:43:00.036Z,6.00
2018-04-26T03:45:28.907Z,5.90
2018-04-26T03:48:02.334Z,6.30
2018-04-26T03:50:31.250Z,6.03
2018-04-26T03:53:00.207Z,6.00
2018-04-26T03:55:31.255Z,5.50
2018-04-26T03:58:00.242Z,4.93
2018-04-26T04:00:41.114Z,5.70
2018-04-26T04:03:21.815Z,6.43
2018-04-26T04:06:15.453Z,7.20
2018-04-26T04:08:44.454Z,7.57
2018-04-26T04:11:13.608Z,9.50
2018-04-26T04:13:43.640Z,9.13
2018-04-26T04:16:13.282Z,9.43
2018-04-26T04:18:42.432Z,8.47
2018-04-26T04:21:11.551Z,10.23
2018-04-26T04:23:44.150Z,11.77
2018-04-26T04:26:13.991Z,12.37
2018-04-26T04:28:43.982Z,10.37
2018-04-26T04:31:13.485Z,11.53
2018-04-26T04:36:17.023Z,10.73
2018-04-26T04:38:46.100Z,12.83
2018-04-26T04:41:16.716Z,11.90
2018-04-26T04:43:45.624Z,12.30
2018-04-26T04:46:16.050Z,12.30
2018-04-26T04:48:45.970Z,14.03
2018-04-26T04:51:15.055Z,14.40
2018-04-26T04:53:44.060Z,13.70
2018-04-26T04:56:13.924Z,15.07
2018-04-26T04:58:42.866Z,15.63
2018-04-26T05:01:11.816Z,14.00
2018-04-26T05:03:42.689Z,13.20
2018-04-26T05:06:11.682Z,12.53
2018-04-26T05:08:40.669Z,14.43
2018-04-26T05:11:09.767Z,11.70
2018-04-26T05:13:38.729Z,12.90
2018-04-26T05:16:07.779Z,12.37
2018-04-26T05:18:37.716Z,11.73
2018-04-26T05:21:06.578Z,13.13
2018-04-26T05:23:35.455Z,13.80
2018-04-26T05:26:04.443Z,13.00
2018-04-26T05:28:33.355Z,11.60
2018-04-26T05:31:02.142Z,13.03
2018-04-26T05:36:06.787Z,12.43
2018-04-26T05:38:35.688Z,11.07
2018-04-26T05:41:04.683Z,12.70
2018-04-26T05:43:33.596Z,13.37
2018-04-26T05:46:02.453Z,15.10
2018-04-26T05:48:31.364Z,17.47
2018-04-26T05:51:00.317Z,16.73
2018-04-26T05:53:29.338Z,15.23
2018-04-26T05:55:58.250Z,16.60
2018-04-26T05:58:29.458Z,17.30
2018-04-26T06:00:59.402Z,15.83
2018-04-26T06:03:28.361Z,19.67
2018-04-26T06:05:59.122Z,22.50
2018-04-26T06:08:28.012Z,21.57
2018-04-26T06:10:56.901Z,22.50
2018-04-26T06:13:25.760Z,22.47
2018-04-26T06:15:54.571Z,22.80
2018-04-26T06:18:23.478Z,21.73
2018-04-26T06:20:54.316Z,19.77
2018-04-26T06:23:23.313Z,19.00
2018-04-26T06:25:52.286Z,17.33
2018-04-26T06:28:22.940Z,16.63
2018-04-26T06:30:51.828Z,16.50
2018-04-26T06:33:20.735Z,16.50
2018-04-26T06:35:51.356Z,15.20
2018-04-26T06:38:20.348Z,16.03
2018-04-26T06:40:49.337Z,17.70
2018-04-26T06:43:19.155Z,20.30
2018-04-26T06:45:48.149Z,19.37
2018-04-26T06:48:17.039Z,23.80
2018-04-26T06:50:46.749Z,25.43
2018-04-26T06:53:15.640Z,25.53
2018-04-26T06:55:44.570Z,25.20
2018-04-26T06:58:13.538Z,26.90
2018-04-26T07:00:42.418Z,25.20
2018-04-26T07:03:11.360Z,26.47
2018-04-26T07:08:20.054Z,26.20
2018-04-26T07:10:55.203Z,25.20
2018-04-26T07:13:24.053Z,27.27
2018-04-26T07:15:52.978Z,32.20
2018-04-26T07:18:21.964Z,33.80
2018-04-26T07:20:50.857Z,31.00
2018-04-26T07:23:19.754Z,30.13
2018-04-26T07:25:48.639Z,30.77
2018-04-26T07:28:17.747Z,28.77
2018-04-26T07:30:46.633Z,26.60
2018-04-26T07:33:15.521Z,26.50
2018-04-26T07:35:44.515Z,26.37
2018-04-26T07:38:13.372Z,25.57
2018-04-26T07:40:42.195Z,25.90
2018-04-26T07:43:12.016Z,24.30
2018-04-26T07:45:40.896Z,25.13
2018-04-26T07:48:09.837Z,26.53
2018-04-26T07:50:40.543Z,25.43
2018-04-26T07:53:09.401Z,26.07
2018-04-26T07:55:38.307Z,24.53
2018-04-26T07:58:08.061Z,21.70
2018-04-26T08:00:37.018Z,24.00
2018-04-26T08:03:05.887Z,21.93
2018-04-26T08:05:35.727Z,20.00
2018-04-26T08:08:04.919Z,19.80
2018-04-26T08:10:34.105Z,18.20
2018-04-26T08:13:04.026Z,16.93
2018-04-26T08:15:32.994Z,15.50
2018-04-26T08:18:01.851Z,15.50
2018-04-26T08:20:31.735Z,15.50
2018-04-26T08:23:00.625Z,14.27
2018-04-26T08:25:29.603Z,14.40
2018-04-26T08:27:59.983Z,13.60
2018-04-26T08:30:29.013Z,13.93
2018-04-26T08:32:57.909Z,12.57
2018-04-26T08:35:28.467Z,15.00
2018-04-26T08:37:57.357Z,15.80
2018-04-26T08:40:26.866Z,13.40
2018-04-26T08:42:55.963Z,14.30
2018-04-26T08:45:24.938Z,13.10
2018-04-26T08:47:53.848Z,12.73
2018-04-26T08:50:23.709Z,11.73
2018-04-26T08:52:52.637Z,11.53
2018-04-26T08:55:21.643Z,13.20
2018-04-26T08:57:50.854Z,12.37
2018-04-26T09:00:19.833Z,12.33
2018-04-26T09:02:49.140Z,12.10
2018-04-26T09:05:18.221Z,10.37
2018-04-26T09:07:47.127Z,13.57
2018-04-26T09:10:18.791Z,12.70
2018-04-26T09:12:47.875Z,15.33
2018-04-26T09:15:17.695Z,17.53
2018-04-26T09:17:47.505Z,16.50
2018-04-26T09:20:19.030Z,17.00
2018-04-26T09:22:52.852Z,14.70
2018-04-26T09:25:25.552Z,16.60
2018-04-26T09:27:56.804Z,17.33
2018-04-26T09:30:26.096Z,15.47
2018-04-26T09:32:55.091Z,16.10
2018-04-26T09:35:30.455Z,16.53
2018-04-26T09:37:59.279Z,15.93
2018-04-26T09:40:30.209Z,16.57
2018-04-26T09:42:59.048Z,14.03
2018-04-26T09:45:28.049Z,12.80
2018-04-26T09:47:57.751Z,14.80
2018-04-26T09:50:26.764Z,11.73
2018-04-26T09:52:55.804Z,10.07
2018-04-26T09:55:25.319Z,11.40
2018-04-26T09:57:55.148Z,13.20
2018-04-26T10:00:29.135Z,12.53
2018-04-26T10:02:58.157Z,15.53
2018-04-26T10:05:32.373Z,23.07
2018-04-26T10:08:01.378Z,23.77
2018-04-26T10:10:32.123Z,21.67
2018-04-26T10:13:01.124Z,22.97
2018-04-26T10:15:30.112Z,22.60
2018-04-26T10:17:59.017Z,20.97
2018-04-26T10:20:27.897Z,18.70
2018-04-26T10:22:56.991Z,16.37
2018-04-26T10:25:25.887Z,15.90
2018-04-26T10:27:54.764Z,13.77
2018-04-26T10:32:57.673Z,13.07
2018-04-26T10:35:27.627Z,12.40
2018-04-26T10:37:56.590Z,11.37
2018-04-26T10:40:25.480Z,11.53
2018-04-26T10:42:54.880Z,11.93
2018-04-26T10:45:23.869Z,11.47
2018-04-26T10:47:52.768Z,9.90
2018-04-26T10:50:21.668Z,8.53
2018-04-26T10:52:52.463Z,9.10
2018-04-26T10:55:21.390Z,9.40
2018-04-26T10:57:50.386Z,10.00
2018-04-26T11:00:20.275Z,8.40
2018-04-26T11:02:49.984Z,8.77
2018-04-26T11:05:19.825Z,8.53
2018-04-26T11:07:48.863Z,7.40
2018-04-26T11:10:17.682Z,7.53
2018-04-26T11:12:46.502Z,7.20
2018-04-26T11:15:16.246Z,7.27
2018-04-26T11:17:45.257Z,6.00
2018-04-26T11:20:14.095Z,5.90
2018-04-26T11:22:43.906Z,6.17
2018-04-26T11:25:12.798Z,6.63
2018-04-26T11:27:41.692Z,7.10
2018-04-26T11:30:11.506Z,6.67
2018-04-26T11:32:40.383Z,7.20
2018-04-26T11:35:10.107Z,6.40
2018-04-26T11:37:39.210Z,7.20
2018-04-26T11:40:08.269Z,7.00
2018-04-26T11:42:37.189Z,6.30
2018-04-26T11:45:07.029Z,6.90
2018-04-26T11:47:36.212Z,6.70
2018-04-26T11:50:05.976Z,7.10
2018-04-26T11:52:35.147Z,6.70
2018-04-26T11:55:04.108Z,7.33
2018-04-26T11:57:34.433Z,7.67
2018-04-26T12:00:06.293Z,6.80
2018-04-26T12:02:35.375Z,7.30
2018-04-26T12:05:04.250Z,7.00
2018-04-26T12:07:33.211Z,8.27
2018-04-26T12:10:02.070Z,7.03
2018-04-26T12:12:43.969Z,7.00
2018-04-26T12:15:31.803Z,7.33
2018-04-26T12:18:05.950Z,7.40
2018-04-26T12:20:35.623Z,7.73
2018-04-26T12:23:04.655Z,8.03
2018-04-26T12:25:33.715Z,8.77
2018-04-26T12:28:02.742Z,8.03
2018-04-26T12:30:31.815Z,7.53
2018-04-26T12:33:00.805Z,7.90
2018-04-26T12:35:29.791Z,7.80
2018-04-26T12:37:59.449Z,7.93
2018-04-26T12:40:28.397Z,8.73
2018-04-26T12:42:57.389Z,8.93
2018-04-26T12:45:26.444Z,8.83
2018-04-26T12:47:56.440Z,9.10
2018-04-26T12:50:26.939Z,9.50
2018-04-26T12:52:55.965Z,8.50
2018-04-26T12:55:25.790Z,9.03
2018-04-26T12:57:54.770Z,8.77
2018-04-26T13:00:23.735Z,10.30
2018-04-26T13:02:55.685Z,9.43
2018-04-26T13:05:24.630Z,8.77
2018-04-26T13:07:53.611Z,7.80
2018-04-26T13:10:22.620Z,7.60
2018-04-26T13:12:52.628Z,8.47
2018-04-26T13:15:22.419Z,8.37
2018-04-26T13:17:57.949Z,8.80
2018-04-26T13:20:26.906Z,9.40
2018-04-26T13:22:55.797Z,8.17
2018-04-26T13:25:26.403Z,9.03
2018-04-26T13:27:55.291Z,9.90
2018-04-26T13:30:24.355Z,8.30
2018-04-26T13:32:53.665Z,8.27
2018-04-26T13:35:22.651Z,7.80
2018-04-26T13:37:51.545Z,8.07
2018-04-26T13:40:21.392Z,7.07
2018-04-26T13:42:50.274Z,7.03
2018-04-26T13:45:19.140Z,6.50
2018-04-26T13:47:48.236Z,6.80
2018-04-26T13:50:17.462Z,7.30
2018-04-26T13:52:46.794Z,5.10
2018-04-26T13:55:21.475Z,6.63
2018-04-26T13:57:50.356Z,6.67
2018-04-26T14:00:19.970Z,7.00
2018-04-26T14:02:48.938Z,7.40
2018-04-26T14:05:17.851Z,7.00
2018-04-26T14:07:46.811Z,7.80
2018-04-26T14:10:15.872Z,6.90
2018-04-26T14:12:44.940Z,7.80
2018-04-26T14:15:15.588Z,8.07
2018-04-26T14:17:45.327Z,7.00
2018-04-26T14:20:14.273Z,6.93
2018-04-26T14:22:43.304Z,6.83
2018-04-26T14:25:13.084Z,7.83
2018-04-26T14:27:42.076Z,7.00
2018-04-26T14:30:11.171Z,6.93
2018-04-26T14:32:43.235Z,6.97
2018-04-26T14:35:12.222Z,6.93
2018-04-26T14:37:41.221Z,5.67
2018-04-26T14:40:10.312Z,6.60
2018-04-26T14:42:39.239Z,8.23
2018-04-26T14:45:08.913Z,8.10
2018-04-26T14:47:38.022Z,7.20
2018-04-26T14:50:07.022Z,7.10
2018-04-26T14:52:35.899Z,8.20
2018-04-26T14:55:07.046Z,6.97
2018-04-26T14:57:35.961Z,7.70
2018-04-26T15:00:05.029Z,7.90
2018-04-26T15:02:35.800Z,8.37
2018-04-26T15:05:04.756Z,7.10
2018-04-26T15:07:33.886Z,5.90
2018-04-26T15:10:04.432Z,6.73
2018-04-26T15:12:33.382Z,8.53
2018-04-26T15:15:02.257Z,9.87
2018-04-26T15:17:31.986Z,9.40
2018-04-26T15:20:00.955Z,8.40
2018-04-26T15:22:30.801Z,8.03
2018-04-26T15:24:59.786Z,8.10
2018-04-26T15:27:28.781Z,8.57
2018-04-26T15:29:57.771Z,8.23
2018-04-26T15:35:00.370Z,7.90
2018-04-26T15:37:29.247Z,8.27
2018-04-26T15:40:00.503Z,7.33
2018-04-26T15:42:30.223Z,8.47
2018-04-26T15:45:00.586Z,9.00
2018-04-26T15:47:29.695Z,9.57
2018-04-26T15:49:58.711Z,10.13
2018-04-26T15:52:47.807Z,10.17
2018-04-26T15:55:41.951Z,11.00
2018-04-26T16:01:44.444Z,10.10
2018-04-26T16:04:27.814Z,9.70
2018-04-26T16:07:09.540Z,10.00
2018-04-26T16:09:50.470Z,9.67
2018-04-26T16:12:36.786Z,10.17
2018-04-26T16:15:18.349Z,11.73
2018-04-26T16:18:04.481Z,11.00
2018-04-26T16:20:52.614Z,11.03
2018-04-26T16:23:38.810Z,15.23
2018-04-26T16:26:20.603Z,13.93
2018-04-26T16:29:06.903Z,10.30
2018-04-26T16:31:54.842Z,9.80
2018-04-26T16:34:50.359Z,10.77
2018-04-26T16:37:36.767Z,11.03
2018-04-26T16:40:05.653Z,10.87
2018-04-26T16:42:35.568Z,10.73
2018-04-26T16:45:07.415Z,9.40
2018-04-26T16:47:36.384Z,10.57
2018-04-26T16:50:05.377Z,10.23
2018-04-26T16:55:08.217Z,8.77
2018-04-26T16:57:38.137Z,9.70
2018-04-26T17:00:08.156Z,10.97
2018-04-26T17:02:38.173Z,11.07
2018-04-26T17:05:07.321Z,9.77
2018-04-26T17:07:36.268Z,9.60
2018-04-26T17:10:05.801Z,10.30
2018-04-26T17:12:34.754Z,10.00
2018-04-26T17:15:03.962Z,9.50
2018-04-26T17:17:32.860Z,8.43
2018-04-26T17:20:02.872Z,9.20
2018-04-26T17:22:31.997Z,10.97
2018-04-26T17:25:01.272Z,9.80
2018-04-26T17:27:31.329Z,10.30
2018-04-26T17:30:03.464Z,11.67
2018-04-26T17:32:32.524Z,13.47
2018-04-26T17:35:01.651Z,14.77
2018-04-26T17:40:04.777Z,15.80
2018-04-26T17:42:33.754Z,13.67
2018-04-26T17:45:02.745Z,16.47
2018-04-26T17:47:31.770Z,17.40
2018-04-26T17:50:00.679Z,17.30
2018-04-26T17:52:30.427Z,15.07
2018-04-26T17:54:59.448Z,15.67
2018-04-26T17:57:30.082Z,16.93
2018-04-26T18:00:00.012Z,18.97
2018-04-26T18:02:29.291Z,20.97
2018-04-26T18:04:58.212Z,24.80
2018-04-26T18:07:30.047Z,18.70
2018-04-26T18:09:59.101Z,15.87
2018-04-26T18:12:28.032Z,15.40
2018-04-26T18:14:59.993Z,17.57
2018-04-26T18:17:29.090Z,19.27
2018-04-26T18:20:08.148Z,15.27
2018-04-26T18:22:27.290Z,12.13
2018-04-26T18:24:56.096Z,13.10
2018-04-26T18:27:26.600Z,11.83
2018-04-26T18:29:55.871Z,12.90
2018-04-26T18:32:25.026Z,13.73
2018-04-26T18:34:54.817Z,13.73
2018-04-26T18:37:23.805Z,12.70
2018-04-26T18:39:52.846Z,12.10
2018-04-26T18:42:21.735Z,12.53
2018-04-26T18:44:50.942Z,12.63
2018-04-26T18:47:20.437Z,12.07
2018-04-26T18:49:49.529Z,11.80
2018-04-26T18:52:19.355Z,12.40
2018-04-26T18:54:48.299Z,13.43
2018-04-26T18:57:18.179Z,12.83
2018-04-26T18:59:48.899Z,12.60
2018-04-26T19:02:17.951Z,11.90
2018-04-26T19:04:46.767Z,14.50
2018-04-26T19:07:16.687Z,13.67
2018-04-26T19:09:45.750Z,16.57
2018-04-26T19:12:15.768Z,15.77
2018-04-26T19:14:45.577Z,17.20
2018-04-26T19:17:16.214Z,17.20
2018-04-26T19:19:45.924Z,16.60
2018-04-26T19:22:15.872Z,17.03
2018-04-26T19:24:44.833Z,18.30
2018-04-26T19:27:14.103Z,16.90
2018-04-26T19:29:43.019Z,19.10
2018-04-26T19:32:12.022Z,16.17
2018-04-26T19:34:41.938Z,16.87
2018-04-26T19:37:11.952Z,15.90
2018-04-26T19:39:40.925Z,16.53
2018-04-26T19:42:09.837Z,16.17
2018-04-26T19:44:39.648Z,15.60
2018-04-26T19:47:08.749Z,17.07
2018-04-26T19:49:37.645Z,16.73
2018-04-26T19:52:06.711Z,14.20
2018-04-26T19:54:35.937Z,16.37
2018-04-26T19:57:05.650Z,18.20
2018-04-26T19:59:36.489Z,16.87
2018-04-26T20:02:05.780Z,15.53
2018-04-26T20:04:34.984Z,16.50
2018-04-26T20:07:04.189Z,16.13
2018-04-26T20:09:33.336Z,15.87
2018-04-26T20:12:02.184Z,15.70
2018-04-26T20:14:33.207Z,14.53
2018-04-26T20:17:02.428Z,14.30
2018-04-26T20:19:31.452Z,14.33
2018-04-26T20:22:02.361Z,14.13
2018-04-26T20:24:34.555Z,13.70
2018-04-26T20:27:06.310Z,12.83
2018-04-26T20:29:36.302Z,14.00
2018-04-26T20:32:05.396Z,14.83
2018-04-26T20:34:37.972Z,13.50
2018-04-26T20:37:07.786Z,14.37
2018-04-26T20:39:37.004Z,13.90
2018-04-26T20:42:06.085Z,15.90
2018-04-26T20:44:46.925Z,23.97
2018-04-26T20:49:51.490Z,23.30
2018-04-26T20:52:20.528Z,17.77
2018-04-26T20:57:23.440Z,15.30
2018-04-26T20:59:52.625Z,12.67
2018-04-26T21:02:36.048Z,13.47
2018-04-26T21:05:11.032Z,12.00
2018-04-26T21:07:42.802Z,11.03
2018-04-26T21:10:11.825Z,10.50
2018-04-26T21:12:40.918Z,11.00
2018-04-26T21:15:10.729Z,11.30
2018-04-26T21:17:40.058Z,11.43
2018-04-26T21:20:09.297Z,11.43
2018-04-26T21:22:38.330Z,11.33
2018-04-26T21:25:07.327Z,12.67
2018-04-26T21:27:36.506Z,13.20
2018-04-26T21:30:06.343Z,12.10
2018-04-26T21:32:35.329Z,10.50
2018-04-26T21:35:05.225Z,10.97
2018-04-26T21:37:34.484Z,10.63
2018-04-26T21:40:03.624Z,11.60
2018-04-26T21:42:32.943Z,10.23
2018-04-26T21:45:02.044Z,12.13
2018-04-26T21:47:31.034Z,11.47
2018-04-26T21:50:08.246Z,12.00
2018-04-26T21:52:42.753Z,11.70
2018-04-26T21:55:18.260Z,12.57
2018-04-26T21:57:52.815Z,11.37
2018-04-26T22:00:27.619Z,11.67
2018-04-26T22:02:57.052Z,11.27
2018-04-26T22:05:31.170Z,12.30
2018-04-26T22:08:01.793Z,11.80
2018-04-26T22:10:30.790Z,12.23
2018-04-26T22:13:00.097Z,10.63
2018-04-26T22:15:29.197Z,10.40
2018-04-26T22:17:58.298Z,10.73
2018-04-26T22:20:27.468Z,10.27
2018-04-26T22:22:56.581Z,10.80
2018-04-26T22:25:27.186Z,9.70
2018-04-26T22:27:56.623Z,10.93
2018-04-26T22:30:25.810Z,11.97
2018-04-26T22:32:54.909Z,10.40
2018-04-26T22:35:23.999Z,9.67
2018-04-26T22:37:53.099Z,10.10
2018-04-26T22:40:22.104Z,8.80
2018-04-26T22:42:51.073Z,9.50
2018-04-26T22:45:20.230Z,10.30
2018-04-26T22:47:49.288Z,9.83
2018-04-26T22:50:19.497Z,9.70
2018-04-26T22:52:48.511Z,9.73
2018-04-26T22:55:17.594Z,9.33
2018-04-26T23:00:20.492Z,9.30
2018-04-26T23:02:49.336Z,8.90
2018-04-26T23:05:18.487Z,9.20
2018-04-26T23:07:47.585Z,9.03
2018-04-26T23:10:16.472Z,7.60
2018-04-26T23:12:45.317Z,9.47
2018-04-26T23:15:15.997Z,9.40
2018-04-26T23:17:45.089Z,8.93
2018-04-26T23:20:13.988Z,9.30
2018-04-26T23:22:43.082Z,9.13
2018-04-26T23:25:11.970Z,8.30
2018-04-26T23:27:41.481Z,9.10
2018-04-26T23:30:10.487Z,9.80
2018-04-26T23:32:40.180Z,9.13
2018-04-26T23:35:09.176Z,9.13
2018-04-26T23:37:39.305Z,8.80
2018-04-26T23:40:08.197Z,9.40
2018-04-26T23:42:37.080Z,9.60
2018-04-26T23:45:06.158Z,10.00
2018-04-26T23:47:35.377Z,9.33
2018-04-26T23:50:05.167Z,9.50
2018-04-26T23:52:34.160Z,9.70
2018-04-26T23:55:03.078Z,10.50
2018-04-26T23:57:32.151Z,10.13
